Time;durP1;ratioP1;P1;durP2;ratioP2;P2;SDS_P1;SDS_P2;PMS_P1;PMS_P2;Temp;Humidity;BMP_temperature;BMP_pressure;BME280_temperature;BME280_humidity;BME280_pressure;Samples;Min_cycle;Max_cycle;Signal;HPM_P1;HPM_P2
2021/07/28 00:01:07;;;;;;;22.90;16.57;;;15.90;99.90;;;;;;4993757;28;20260;-73
2021/07/28 00:03:32;;;;;;;22.93;16.00;;;16.00;99.90;;;;;;4993449;28;20278;-73
2021/07/28 00:05:58;;;;;;;22.73;16.40;;;16.00;99.90;;;;;;4992634;28;20295;-73
2021/07/28 00:08:23;;;;;;;24.03;17.50;;;15.90;99.90;;;;;;4993860;28;20187;-73
2021/07/28 00:10:49;;;;;;;23.83;17.47;;;16.00;99.90;;;;;;4976001;28;20181;-73
2021/07/28 00:13:14;;;;;;;25.43;17.40;;;16.00;99.90;;;;;;4992102;28;20207;-74
2021/07/28 00:15:43;;;;;;;22.50;16.33;;;;;;;;;;4992297;28;20203;-73
2021/07/28 00:18:17;;;;;;;23.40;15.57;;;16.00;99.90;;;;;;4993325;28;20168;-73
2021/07/28 00:23:14;;;;;;;35.33;17.17;;;15.90;99.90;;;;;;4992015;28;20197;-73
2021/07/28 00:25:44;;;;;;;23.87;14.73;;;15.90;99.90;;;;;;4976868;28;20176;-73
2021/07/28 00:28:10;;;;;;;21.90;15.17;;;16.10;99.90;;;;;;4992003;28;20259;-73
2021/07/28 00:30:35;;;;;;;21.53;15.03;;;15.20;99.90;;;;;;4991718;28;20251;-73
2021/07/28 00:33:01;;;;;;;20.80;15.30;;;15.80;99.90;;;;;;4991529;28;20563;-73
2021/07/28 00:35:26;;;;;;;23.37;15.27;;;15.80;99.90;;;;;;4991929;28;20183;-73
2021/07/28 00:37:54;;;;;;;23.13;15.03;;;15.80;99.90;;;;;;4975421;28;20263;-72
2021/07/28 00:40:19;;;;;;;19.07;14.80;;;16.00;99.90;;;;;;4990766;28;20172;-73
2021/07/28 00:42:47;;;;;;;17.77;14.17;;;16.70;99.90;;;;;;4991460;28;20208;-73
2021/07/28 00:45:13;;;;;;;20.70;13.47;;;15.90;99.90;;;;;;4975513;28;20195;-73
2021/07/28 00:47:39;;;;;;;17.07;14.03;;;15.70;99.90;;;;;;4991697;28;20212;-73
2021/07/28 00:50:05;;;;;;;17.70;12.53;;;15.50;99.90;;;;;;4991374;28;20184;-73
2021/07/28 00:52:32;;;;;;;18.83;12.90;;;15.70;99.90;;;;;;4991387;28;20195;-73
2021/07/28 00:54:57;;;;;;;18.47;12.50;;;16.00;99.90;;;;;;4991360;28;20699;-73
2021/07/28 00:57:23;;;;;;;19.60;12.27;;;15.70;99.90;;;;;;4991310;28;20184;-73
2021/07/28 00:59:48;;;;;;;16.67;12.47;;;15.70;99.90;;;;;;4975058;28;20183;-73
2021/07/28 01:02:14;;;;;;;15.67;11.57;;;15.70;99.90;;;;;;4991480;28;20188;-73
2021/07/28 01:04:39;;;;;;;17.97;12.40;;;15.70;99.90;;;;;;4975020;28;20180;-74
2021/07/28 01:07:05;;;;;;;16.87;12.47;;;15.80;99.90;;;;;;4991370;28;20208;-73
2021/07/28 01:09:31;;;;;;;17.90;12.10;;;15.60;99.90;;;;;;4992093;28;20211;-73
2021/07/28 01:11:58;;;;;;;16.77;11.47;;;15.60;99.90;;;;;;4991605;28;20180;-74
2021/07/28 01:14:23;;;;;;;19.13;12.27;;;15.60;99.90;;;;;;4991395;28;20199;-73
2021/07/28 01:16:51;;;;;;;15.83;11.17;;;15.80;99.90;;;;;;4991492;28;20180;-73
2021/07/28 01:19:18;;;;;;;17.03;11.73;;;15.50;99.90;;;;;;4991485;28;20180;-74
2021/07/28 01:21:47;;;;;;;19.70;11.77;;;15.60;99.90;;;;;;4991253;28;20258;-73
2021/07/28 01:24:13;;;;;;;14.90;11.60;;;15.60;99.90;;;;;;4991211;28;20287;-72
2021/07/28 01:26:38;;;;;;;14.73;11.30;;;15.70;99.90;;;;;;4991288;28;20358;-74
2021/07/28 01:29:05;;;;;;;17.10;11.70;;;15.50;99.90;;;;;;4991210;28;20188;-73
2021/07/28 01:31:30;;;;;;;18.20;11.53;;;15.60;99.90;;;;;;4975058;28;20242;-73
2021/07/28 01:33:56;;;;;;;15.47;11.37;;;15.60;99.90;;;;;;4990917;28;20632;-73
2021/07/28 01:36:22;;;;;;;18.03;11.87;;;15.60;99.90;;;;;;4991174;28;20188;-73
2021/07/28 01:38:48;;;;;;;15.83;11.23;;;15.50;99.90;;;;;;4991066;28;20196;-71
2021/07/28 01:41:14;;;;;;;13.87;10.77;;;15.50;99.90;;;;;;4975060;28;20543;-72
2021/07/28 01:43:41;;;;;;;15.23;11.40;;;15.60;99.90;;;;;;4991265;28;20206;-73
2021/07/28 01:46:07;;;;;;;14.27;11.03;;;15.80;99.90;;;;;;4991402;28;20212;-73
2021/07/28 01:48:33;;;;;;;16.33;11.43;;;15.50;99.90;;;;;;4975115;28;20552;-73
2021/07/28 01:50:58;;;;;;;16.60;10.67;;;15.50;99.90;;;;;;4974982;28;20188;-72
2021/07/28 01:53:24;;;;;;;14.90;11.40;;;15.40;99.90;;;;;;4996424;28;20215;-72
2021/07/28 01:55:52;;;;;;;15.33;11.43;;;15.60;99.90;;;;;;4994776;28;20184;-72
2021/07/28 01:58:19;;;;;;;14.07;11.93;;;15.40;99.90;;;;;;4994791;28;20270;-72
2021/07/28 02:00:44;;;;;;;18.57;11.60;;;15.60;99.90;;;;;;4978145;28;20682;-72
2021/07/28 02:03:10;;;;;;;17.20;11.60;;;15.40;99.90;;;;;;4978452;28;20199;-73
2021/07/28 02:05:36;;;;;;;16.17;11.73;;;15.60;99.90;;;;;;4994808;28;20259;-72
2021/07/28 02:08:04;;;;;;;14.97;11.77;;;15.50;99.90;;;;;;4994665;28;20180;-72
2021/07/28 02:10:31;;;;;;;16.77;10.80;;;15.30;99.90;;;;;;4993962;28;20180;-72
2021/07/28 02:12:56;;;;;;;16.20;11.50;;;15.40;99.90;;;;;;4977974;28;20376;-72
2021/07/28 02:15:23;;;;;;;13.33;11.27;;;15.40;99.90;;;;;;4994366;28;20259;-72
2021/07/28 02:17:50;;;;;;;17.07;11.13;;;15.40;99.90;;;;;;4994159;28;20669;-72
2021/07/28 02:20:16;;;;;;;19.10;11.67;;;15.30;99.90;;;;;;4993781;28;20176;-72
2021/07/28 02:22:42;;;;;;;20.50;11.97;;;15.40;99.90;;;;;;4993987;28;20285;-72
2021/07/28 02:25:08;;;;;;;14.77;11.33;;;15.40;99.90;;;;;;4977690;28;20180;-72
2021/07/28 02:27:34;;;;;;;23.10;11.57;;;15.20;99.90;;;;;;4994991;28;20302;-72
2021/07/28 02:29:59;;;;;;;15.13;11.70;;;15.50;99.90;;;;;;4993811;28;20664;-72
2021/07/28 02:32:25;;;;;;;20.83;11.77;;;15.30;99.90;;;;;;4993828;28;20643;-73
2021/07/28 02:34:50;;;;;;;19.80;11.77;;;15.40;99.90;;;;;;4977145;28;20177;-72
2021/07/28 02:37:16;;;;;;;19.50;11.83;;;15.30;99.90;;;;;;4993774;28;20246;-72
2021/07/28 02:39:41;;;;;;;14.20;12.10;;;15.30;99.90;;;;;;4993520;28;20176;-72
2021/07/28 02:42:07;;;;;;;20.77;12.20;;;15.40;99.90;;;;;;4993868;28;20195;-72
2021/07/28 02:44:32;;;;;;;15.30;11.93;;;15.30;99.90;;;;;;4994537;28;20196;-72
2021/07/28 02:46:58;;;;;;;19.23;12.90;;;15.30;99.90;;;;;;4993538;28;20211;-72
2021/07/28 02:49:24;;;;;;;17.77;11.73;;;15.20;99.90;;;;;;4993225;28;20164;-72
2021/07/28 02:51:49;;;;;;;16.53;12.03;;;15.20;99.90;;;;;;4977225;28;20169;-73
2021/07/28 02:54:17;;;;;;;16.43;11.87;;;15.40;99.90;;;;;;4976824;28;20222;-72
2021/07/28 02:56:43;;;;;;;22.37;12.03;;;15.40;99.90;;;;;;4992800;28;20176;-72
2021/07/28 02:59:08;;;;;;;17.63;12.27;;;15.20;99.90;;;;;;4993103;28;20226;-72
2021/07/28 03:01:34;;;;;;;21.60;12.60;;;15.20;99.90;;;;;;4993375;28;20597;-73
2021/07/28 03:03:59;;;;;;;15.73;11.83;;;15.20;99.90;;;;;;4992253;28;20612;-73
2021/07/28 03:06:25;;;;;;;16.00;11.83;;;15.30;99.90;;;;;;4994118;28;20204;-72
2021/07/28 03:08:50;;;;;;;16.90;11.43;;;15.30;99.90;;;;;;4994175;28;20268;-72
2021/07/28 03:11:16;;;;;;;15.93;12.47;;;15.30;99.90;;;;;;4993202;28;20180;-72
2021/07/28 03:13:41;;;;;;;20.73;12.27;;;15.40;99.90;;;;;;4993010;28;20189;-72
2021/07/28 03:16:10;;;;;;;16.10;11.73;;;15.20;99.90;;;;;;4993255;28;20192;-72
2021/07/28 03:18:36;;;;;;;15.00;10.67;;;15.40;99.90;;;;;;4976608;28;20204;-74
2021/07/28 03:21:01;;;;;;;18.83;10.87;;;15.20;99.90;;;;;;4992999;28;20177;-72
2021/07/28 03:23:27;;;;;;;17.00;10.90;;;15.30;99.90;;;;;;4992905;28;20289;-72
2021/07/28 03:25:52;;;;;;;14.40;10.40;;;15.30;99.90;;;;;;5003874;28;20266;-72
2021/07/28 03:28:18;;;;;;;14.67;10.80;;;15.20;99.90;;;;;;4996041;28;20551;-73
2021/07/28 03:30:43;;;;;;;14.70;10.87;;;15.20;99.90;;;;;;4995633;28;20175;-72
2021/07/28 03:33:09;;;;;;;15.80;10.87;;;15.20;99.90;;;;;;5013281;28;20199;-72
2021/07/28 03:35:34;;;;;;;14.33;10.30;;;15.20;99.90;;;;;;5013472;28;20176;-72
2021/07/28 03:38:00;;;;;;;17.17;10.60;;;15.30;99.90;;;;;;5013476;28;20179;-72
2021/07/28 03:40:25;;;;;;;16.53;10.40;;;15.30;99.90;;;;;;4992496;28;20190;-72
2021/07/28 03:42:51;;;;;;;16.07;11.27;;;15.40;99.90;;;;;;5011925;28;20589;-72
2021/07/28 03:45:17;;;;;;;12.20;10.40;;;15.40;99.90;;;;;;5012003;28;20203;-72
2021/07/28 03:47:42;;;;;;;11.87;10.33;;;15.30;99.90;;;;;;5011756;28;20203;-74
2021/07/28 03:50:08;;;;;;;14.63;9.60;;;15.50;99.90;;;;;;5012937;28;20172;-72
2021/07/28 03:52:34;;;;;;;10.83;9.63;;;15.40;99.90;;;;;;4995303;28;20238;-72
2021/07/28 03:54:59;;;;;;;15.13;9.90;;;15.40;99.90;;;;;;5011890;28;20207;-72
2021/07/28 03:57:25;;;;;;;13.33;10.10;;;15.40;99.90;;;;;;5013134;28;20183;-72
2021/07/28 03:59:51;;;;;;;15.50;10.83;;;15.50;99.90;;;;;;5011533;28;20180;-73
2021/07/28 04:02:16;;;;;;;16.53;10.10;;;15.60;99.90;;;;;;5012500;28;20187;-72
2021/07/28 04:04:42;;;;;;;12.80;9.70;;;15.50;99.90;;;;;;5011735;28;20245;-72
2021/07/28 04:07:07;;;;;;;14.37;10.27;;;15.00;99.90;;;;;;4994531;28;20216;-72
2021/07/28 04:09:33;;;;;;;13.03;9.80;;;15.60;99.90;;;;;;4991891;28;20640;-73
2021/07/28 04:11:59;;;;;;;12.23;9.80;;;15.60;99.90;;;;;;4975417;28;20184;-73
2021/07/28 04:14:24;;;;;;;10.30;9.03;;;15.50;99.90;;;;;;4991775;28;20548;-72
2021/07/28 04:16:50;;;;;;;15.70;10.07;;;15.70;99.90;;;;;;5007764;28;20223;-72
2021/07/28 04:19:15;;;;;;;14.67;9.40;;;15.80;99.90;;;;;;4994853;28;20190;-73
2021/07/28 04:21:41;;;;;;;16.97;9.40;;;15.70;99.90;;;;;;5011046;28;20191;-73
2021/07/28 04:24:06;;;;;;;16.47;10.13;;;15.70;99.90;;;;;;5011384;28;20226;-72
2021/07/28 04:26:32;;;;;;;11.07;8.43;;;15.70;99.90;;;;;;5011472;28;20585;-72
2021/07/28 04:28:57;;;;;;;12.87;8.87;;;15.70;99.90;;;;;;4995112;28;20203;-73
2021/07/28 04:31:23;;;;;;;11.33;8.90;;;15.70;99.90;;;;;;5011667;28;20176;-73
2021/07/28 04:33:49;;;;;;;12.27;9.30;;;15.80;99.90;;;;;;5011448;28;20207;-73
2021/07/28 04:36:14;;;;;;;13.00;8.97;;;15.80;99.90;;;;;;5011789;28;20183;-73
2021/07/28 04:38:40;;;;;;;14.03;9.20;;;15.80;99.90;;;;;;5011574;28;20188;-72
2021/07/28 04:41:05;;;;;;;18.03;9.47;;;15.90;99.90;;;;;;5012618;28;20202;-75
2021/07/28 04:43:31;;;;;;;12.60;9.47;;;15.90;99.90;;;;;;5012596;28;20218;-75
2021/07/28 04:46:00;;;;;;;14.17;9.13;;;15.80;99.90;;;;;;5012395;28;20182;-73
2021/07/28 04:48:27;;;;;;;16.30;9.40;;;15.90;99.90;;;;;;5011237;28;20168;-74
2021/07/28 04:50:53;;;;;;;14.00;9.67;;;15.90;99.90;;;;;;4994723;28;20187;-73
2021/07/28 04:53:18;;;;;;;16.50;10.37;;;16.00;99.90;;;;;;5010904;28;20691;-74
2021/07/28 04:55:49;;;;;;;13.47;9.57;;;15.90;99.90;;;;;;5011018;28;20266;-74
2021/07/28 04:58:15;;;;;;;11.40;8.87;;;16.00;99.90;;;;;;5011240;28;20559;-73
2021/07/28 05:00:40;;;;;;;11.00;9.40;;;16.00;99.90;;;;;;5010805;28;20183;-73
2021/07/28 05:03:06;;;;;;;12.50;8.93;;;16.00;99.90;;;;;;5011030;28;20199;-74
2021/07/28 05:05:31;;;;;;;13.60;8.70;;;16.00;99.90;;;;;;4994528;28;20183;-73
2021/07/28 05:07:57;;;;;;;13.20;8.50;;;16.00;99.90;;;;;;5010931;28;20203;-73
2021/07/28 05:10:24;;;;;;;14.77;9.73;;;16.00;99.90;;;;;;5009034;28;20192;-72
2021/07/28 05:12:50;;;;;;;11.93;9.30;;;16.00;99.90;;;;;;5010977;28;20544;-73
2021/07/28 05:15:16;;;;;;;14.40;9.57;;;16.00;99.90;;;;;;5010882;28;20255;-72
2021/07/28 05:17:42;;;;;;;13.13;9.40;;;16.10;99.90;;;;;;5010794;28;20182;-72
2021/07/28 05:20:09;;;;;;;12.67;8.90;;;16.20;99.90;;;;;;5010698;28;20179;-72
2021/07/28 05:22:34;;;;;;;14.20;9.93;;;16.30;99.90;;;;;;5010838;28;20256;-73
2021/07/28 05:25:00;;;;;;;12.80;9.30;;;16.30;99.90;;;;;;5010559;28;20183;-73
2021/07/28 05:27:26;;;;;;;12.60;10.37;;;16.50;99.90;;;;;;5013156;28;20230;-73
2021/07/28 05:29:51;;;;;;;12.63;9.30;;;16.50;99.90;;;;;;5014632;28;20200;-73
2021/07/28 05:32:17;;;;;;;11.80;9.30;;;16.60;99.90;;;;;;5014698;28;20218;-74
2021/07/28 05:34:42;;;;;;;13.63;10.10;;;16.70;99.90;;;;;;5015817;28;20182;-72
2021/07/28 05:37:08;;;;;;;11.70;9.30;;;16.60;99.90;;;;;;5015717;28;20770;-73
2021/07/28 05:39:33;;;;;;;13.30;10.20;;;16.80;99.90;;;;;;5015465;28;20184;-73
2021/07/28 05:41:59;;;;;;;16.33;9.07;;;16.70;99.90;;;;;;4982150;28;20194;-74
2021/07/28 05:44:25;;;;;;;14.73;10.17;;;16.90;99.90;;;;;;5014006;28;20275;-73
2021/07/28 05:46:51;;;;;;;14.13;10.10;;;16.90;99.90;;;;;;5014270;28;20576;-73
2021/07/28 05:49:16;;;;;;;13.13;9.70;;;17.00;99.90;;;;;;4997796;28;20226;-73
2021/07/28 05:51:42;;;;;;;15.40;10.30;;;16.80;99.90;;;;;;5014206;28;20522;-73
2021/07/28 05:54:07;;;;;;;12.60;9.30;;;16.90;99.90;;;;;;5015010;28;20624;-73
2021/07/28 05:56:33;;;;;;;13.17;10.13;;;17.00;99.90;;;;;;5013858;28;20725;-73
2021/07/28 05:58:58;;;;;;;17.57;10.53;;;16.90;99.90;;;;;;5014879;28;20190;-73
2021/07/28 06:01:24;;;;;;;11.43;10.20;;;17.00;99.90;;;;;;4997601;28;20184;-73
2021/07/28 06:03:49;;;;;;;14.03;10.67;;;17.00;99.90;;;;;;5014803;28;20211;-74
2021/07/28 06:06:15;;;;;;;13.60;9.77;;;17.10;99.90;;;;;;4997303;28;20206;-73
2021/07/28 06:08:40;;;;;;;12.63;10.20;;;17.10;99.90;;;;;;5013780;28;20176;-73
2021/07/28 06:11:06;;;;;;;14.27;10.33;;;17.10;99.90;;;;;;4997411;28;20189;-73
2021/07/28 06:13:32;;;;;;;14.03;10.37;;;17.30;99.90;;;;;;5013646;28;20257;-73
2021/07/28 06:15:57;;;;;;;14.97;11.50;;;17.20;99.90;;;;;;5013347;28;20182;-74
2021/07/28 06:18:23;;;;;;;18.77;10.83;;;17.20;99.90;;;;;;4997341;28;20192;-73
2021/07/28 06:20:48;;;;;;;15.27;10.70;;;17.20;99.90;;;;;;4997343;28;20184;-74
2021/07/28 06:23:14;;;;;;;13.20;10.90;;;17.30;99.90;;;;;;5015172;28;20218;-73
2021/07/28 06:25:40;;;;;;;14.37;11.33;;;17.30;99.90;;;;;;5013608;28;20180;-73
2021/07/28 06:28:05;;;;;;;14.33;10.20;;;17.40;99.90;;;;;;5013320;28;20225;-73
2021/07/28 06:30:31;;;;;;;14.17;10.77;;;17.70;99.90;;;;;;5012932;28;20176;-73
2021/07/28 06:32:57;;;;;;;11.30;9.67;;;17.90;99.90;;;;;;5013455;28;20283;-73
2021/07/28 06:35:22;;;;;;;15.80;11.27;;;18.10;99.90;;;;;;5014566;28;20184;-73
2021/07/28 06:37:48;;;;;;;15.40;10.30;;;18.20;99.90;;;;;;5012471;28;20270;-74
2021/07/28 06:40:14;;;;;;;11.77;10.07;;;18.60;99.90;;;;;;5012909;28;20186;-73
2021/07/28 06:42:39;;;;;;;12.53;9.97;;;18.70;99.90;;;;;;4997250;28;20208;-73
2021/07/28 06:45:05;;;;;;;10.27;9.13;;;18.80;99.90;;;;;;5013184;28;20191;-73
2021/07/28 06:47:31;;;;;;;10.67;9.00;;;18.90;99.90;;;;;;4996524;28;20242;-76
2021/07/28 06:49:56;;;;;;;12.43;9.80;;;19.10;99.90;;;;;;4979721;28;20207;-78
2021/07/28 06:52:22;;;;;;;13.23;10.57;;;19.30;99.90;;;;;;4992744;28;20184;-78
2021/07/28 06:54:48;;;;;;;13.07;9.30;;;19.50;99.90;;;;;;4983477;28;20193;-75
2021/07/28 06:57:13;;;;;;;12.90;9.80;;;19.60;99.90;;;;;;4993625;28;20191;-76
2021/07/28 06:59:39;;;;;;;10.57;9.27;;;19.80;99.90;;;;;;4993480;28;20207;-76
2021/07/28 07:02:04;;;;;;;9.77;8.17;;;20.00;99.90;;;;;;5002526;28;20183;-77
2021/07/28 07:04:30;;;;;;;10.93;7.87;;;20.40;99.90;;;;;;4996913;28;20206;-76
2021/07/28 07:06:55;;;;;;;11.87;7.87;;;20.70;99.90;;;;;;5014496;28;20256;-74
2021/07/28 07:09:21;;;;;;;9.77;7.60;;;20.90;99.90;;;;;;5012403;28;20183;-76
2021/07/28 07:11:47;;;;;;;9.40;7.70;;;20.90;99.90;;;;;;5014544;28;20182;-76
2021/07/28 07:14:12;;;;;;;8.13;6.87;;;20.80;99.90;;;;;;5012882;28;20721;-78
2021/07/28 07:16:38;;;;;;;8.20;7.37;;;20.60;99.90;;;;;;4996831;28;20646;-74
2021/07/28 07:19:04;;;;;;;11.53;7.20;;;20.30;99.90;;;;;;5012658;28;20659;-74
2021/07/28 07:21:29;;;;;;;8.37;6.90;;;20.10;99.90;;;;;;5012752;28;20757;-74
2021/07/28 07:23:55;;;;;;;8.23;7.43;;;20.10;99.90;;;;;;5012449;28;20210;-74
2021/07/28 07:26:20;;;;;;;10.40;6.13;;;20.10;99.90;;;;;;4995988;28;20211;-75
2021/07/28 07:28:46;;;;;;;8.87;7.50;;;19.80;99.90;;;;;;4995393;28;20270;-75
2021/07/28 07:31:11;;;;;;;8.20;6.23;;;19.80;99.90;;;;;;4996436;28;20207;-75
2021/07/28 07:36:03;;;;;;;9.47;7.00;;;19.90;99.90;;;;;;5012553;28;20554;-76
2021/07/28 07:38:28;;;;;;;10.10;6.73;;;20.00;99.90;;;;;;5014153;28;20190;-74
2021/07/28 07:40:54;;;;;;;7.40;6.43;;;20.00;99.90;;;;;;5014391;28;20180;-75
2021/07/28 07:43:20;;;;;;;9.33;6.67;;;20.30;99.90;;;;;;5013850;28;20210;-75
2021/07/28 07:45:45;;;;;;;9.07;6.10;;;20.60;99.90;;;;;;5010377;28;20171;-77
2021/07/28 07:48:11;;;;;;;9.87;6.27;;;20.80;99.90;;;;;;5023822;28;20658;-76
2021/07/28 07:50:36;;;;;;;8.57;6.50;;;20.70;99.90;;;;;;5018839;28;20176;-77
2021/07/28 07:53:05;;;;;;;6.83;6.17;;;20.80;99.90;;;;;;5011546;28;20206;-75
2021/07/28 07:55:30;;;;;;;8.33;6.23;;;20.80;99.90;;;;;;4997402;28;20261;-76
2021/07/28 07:57:59;;;;;;;6.67;5.97;;;20.60;99.90;;;;;;5029701;28;20286;-77
2021/07/28 08:00:25;;;;;;;7.67;5.63;;;20.60;99.90;;;;;;5020499;28;20274;-75
2021/07/28 08:02:50;;;;;;;5.97;5.20;;;20.40;99.90;;;;;;5027748;28;20277;-78
2021/07/28 08:05:16;;;;;;;5.73;5.13;;;20.00;99.90;;;;;;5033534;28;20233;-77
2021/07/28 08:07:41;;;;;;;6.10;4.73;;;19.80;99.90;;;;;;5015498;28;20698;-77
2021/07/28 08:10:10;;;;;;;6.90;4.87;;;20.00;99.90;;;;;;4998376;28;20519;-76
2021/07/28 08:12:36;;;;;;;7.10;5.50;;;19.90;99.90;;;;;;4978138;28;20195;-77
2021/07/28 08:15:01;;;;;;;6.37;5.23;;;19.90;99.90;;;;;;4993184;28;20223;-77
2021/07/28 08:17:27;;;;;;;9.90;5.70;;;19.70;99.90;;;;;;4961196;28;20226;-75
2021/07/28 08:19:52;;;;;;;5.60;4.83;;;19.50;99.90;;;;;;4977547;28;20180;-76
2021/07/28 08:22:18;;;;;;;6.30;5.47;;;19.50;99.90;;;;;;5002883;28;20186;-77
2021/07/28 08:24:43;;;;;;;6.50;5.40;;;19.60;99.90;;;;;;5030202;28;20186;-76
2021/07/28 08:27:09;;;;;;;8.80;5.37;;;19.40;99.90;;;;;;5029632;28;20203;-77
2021/07/28 08:29:36;;;;;;;8.73;5.03;;;18.90;99.90;;;;;;5013496;28;20309;-77
2021/07/28 08:32:01;;;;;;;6.43;5.37;;;19.50;99.90;;;;;;5013498;28;20706;-76
2021/07/28 08:34:27;;;;;;;6.53;5.20;;;19.40;99.90;;;;;;4997595;28;20725;-76
2021/07/28 08:36:52;;;;;;;7.90;4.93;;;19.60;99.90;;;;;;5029553;28;20606;-76
2021/07/28 08:39:18;;;;;;;6.93;5.93;;;19.40;99.90;;;;;;5013873;28;20606;-77
2021/07/28 08:41:46;;;;;;;6.63;5.97;;;19.30;99.90;;;;;;5015664;28;20551;-75
2021/07/28 08:44:12;;;;;;;7.50;5.63;;;19.30;99.90;;;;;;5015770;28;20285;-76
2021/07/28 08:46:37;;;;;;;7.70;6.13;;;19.40;99.90;;;;;;5015535;28;20285;-76
2021/07/28 08:49:03;;;;;;;8.73;6.40;;;19.40;99.90;;;;;;5014920;28;20179;-77
2021/07/28 08:51:29;;;;;;;9.70;6.77;;;19.30;99.90;;;;;;5015476;28;20194;-76
2021/07/28 08:53:54;;;;;;;10.20;7.00;;;19.10;99.90;;;;;;5015563;28;20241;-76
2021/07/28 08:56:21;;;;;;;10.60;7.00;;;19.20;99.90;;;;;;5015395;28;20290;-76
2021/07/28 08:58:47;;;;;;;8.13;6.60;;;19.50;99.90;;;;;;5031819;28;20186;-76
2021/07/28 09:01:12;;;;;;;7.87;6.40;;;19.60;99.90;;;;;;5031376;28;20190;-76
2021/07/28 09:03:39;;;;;;;7.47;6.30;;;19.80;99.90;;;;;;5015294;28;20210;-76
2021/07/28 09:06:04;;;;;;;9.87;6.43;;;19.80;99.90;;;;;;5015677;28;20175;-76
2021/07/28 09:08:34;;;;;;;7.33;6.37;;;19.80;99.90;;;;;;5014764;28;20201;-75
2021/07/28 09:11:03;;;;;;;8.67;6.10;;;19.40;99.90;;;;;;5015178;28;20178;-75
2021/07/28 09:13:31;;;;;;;9.73;7.13;;;18.80;99.90;;;;;;5030986;28;20199;-76
2021/07/28 09:16:01;;;;;;;8.73;7.03;;;18.70;99.90;;;;;;5031001;28;20183;-77
2021/07/28 09:18:28;;;;;;;8.03;7.23;;;18.80;99.90;;;;;;5015326;28;20171;-76
2021/07/28 09:20:53;;;;;;;8.97;6.90;;;18.50;99.90;;;;;;5014240;28;20206;-76
2021/07/28 09:23:19;;;;;;;8.47;6.53;;;18.50;99.90;;;;;;5014691;28;20203;-77
2021/07/28 09:25:51;;;;;;;8.03;5.80;;;18.30;99.90;;;;;;5003191;28;20604;-79
2021/07/28 09:28:23;;;;;;;6.70;4.30;;;18.10;99.90;;;;;;5011952;28;20227;-76
2021/07/28 09:30:48;;;;;;;4.60;4.20;;;17.60;99.90;;;;;;5011253;28;20187;-75
2021/07/28 09:33:15;;;;;;;7.57;4.40;;;17.70;99.90;;;;;;5011029;28;20199;-77
2021/07/28 09:35:47;;;;;;;5.07;3.70;;;17.20;99.90;;;;;;4995333;28;20229;-75
2021/07/28 09:38:30;;;;;;;5.47;3.87;;;17.10;99.90;;;;;;5012377;28;20191;-76
2021/07/28 09:41:12;;;;;;;5.67;4.17;;;16.90;99.90;;;;;;4994818;28;20188;-76
2021/07/28 09:43:47;;;;;;;5.03;3.73;;;17.10;99.90;;;;;;4994823;28;20253;-76
2021/07/28 09:46:22;;;;;;;5.17;3.90;;;16.90;99.90;;;;;;5012106;28;20199;-76
2021/07/28 09:48:48;;;;;;;5.93;4.60;;;16.90;99.90;;;;;;4994997;28;20190;-76
2021/07/28 09:51:26;;;;;;;6.40;4.47;;;17.50;99.90;;;;;;5010291;28;20259;-72
2021/07/28 09:53:58;;;;;;;5.07;4.67;;;17.40;99.90;;;;;;5011843;28;20583;-72
2021/07/28 09:56:28;;;;;;;5.63;4.80;;;17.40;99.90;;;;;;4994400;28;20182;-72
2021/07/28 09:58:58;;;;;;;6.80;4.97;;;17.70;99.90;;;;;;4994259;28;20192;-72
2021/07/28 10:01:25;;;;;;;6.83;5.17;;;17.50;99.90;;;;;;5010566;28;20203;-72
2021/07/28 10:03:50;;;;;;;8.97;5.77;;;17.50;99.90;;;;;;4993663;28;20261;-72
2021/07/28 10:06:16;;;;;;;7.33;5.50;;;18.10;99.90;;;;;;5010386;28;20685;-72
2021/07/28 10:08:42;;;;;;;6.27;5.60;;;17.90;99.90;;;;;;4993883;28;20659;-72
2021/07/28 10:11:07;;;;;;;6.47;5.27;;;17.90;99.90;;;;;;4993747;28;20180;-72
2021/07/28 10:13:33;;;;;;;9.00;6.40;;;18.50;99.90;;;;;;5012071;28;20200;-72
2021/07/28 10:15:59;;;;;;;7.30;5.17;;;18.70;99.90;;;;;;5002925;28;20183;-72
2021/07/28 10:18:24;;;;;;;6.47;5.43;;;18.90;99.90;;;;;;5012905;28;20310;-72
2021/07/28 10:20:50;;;;;;;6.73;5.73;;;19.00;99.90;;;;;;5004308;28;20180;-73
2021/07/28 10:23:15;;;;;;;8.10;5.97;;;19.10;99.90;;;;;;5001848;28;20298;-74
2021/07/28 10:25:41;;;;;;;10.90;7.20;;;19.20;99.90;;;;;;5010801;28;20255;-74
2021/07/28 10:28:06;;;;;;;8.10;6.67;;;19.40;99.90;;;;;;5013461;28;20204;-73
2021/07/28 10:30:32;;;;;;;7.30;5.93;;;19.50;99.90;;;;;;4993986;28;20188;-73
2021/07/28 10:32:58;;;;;;;7.83;6.00;;;19.60;99.90;;;;;;4996565;28;20211;-74
2021/07/28 10:35:25;;;;;;;7.93;6.67;;;19.80;99.90;;;;;;5011791;28;20187;-75
2021/07/28 10:37:58;;;;;;;7.03;6.33;;;19.80;99.90;;;;;;5013881;28;20546;-74
2021/07/28 10:40:23;;;;;;;12.33;6.60;;;20.10;99.90;;;;;;5013102;28;20179;-75
2021/07/28 10:42:49;;;;;;;7.67;6.50;;;20.10;99.90;;;;;;4993755;28;20339;-75
2021/07/28 10:45:17;;;;;;;7.17;6.30;;;;;;;;;;4995025;28;20209;-75
2021/07/28 10:47:53;;;;;;;8.73;6.17;;;20.40;99.90;;;;;;4993707;28;20218;-75
2021/07/28 10:50:30;;;;;;;6.97;6.10;;;20.80;99.90;;;;;;4993637;28;20211;-75
2021/07/28 10:52:57;;;;;;;8.83;6.83;;;20.80;99.90;;;;;;5002231;28;20429;-76
2021/07/28 10:55:30;;;;;;;8.73;7.13;;;20.90;99.90;;;;;;5002595;28;20177;-75
2021/07/28 10:58:11;;;;;;;7.43;6.73;;;20.50;99.90;;;;;;4990909;28;20211;-75
2021/07/28 11:00:39;;;;;;;7.83;7.03;;;20.80;99.90;;;;;;4999813;28;20184;-75
2021/07/28 11:03:08;;;;;;;8.30;7.07;;;20.80;99.90;;;;;;4995441;28;20196;-76
2021/07/28 11:05:37;;;;;;;9.47;7.47;;;20.80;99.90;;;;;;4997536;28;20198;-75
2021/07/28 11:08:03;;;;;;;7.83;6.20;;;20.80;99.90;;;;;;5013020;28;20282;-74
2021/07/28 11:10:28;;;;;;;7.37;6.67;;;20.90;99.90;;;;;;5013030;28;20210;-76
2021/07/28 11:12:54;;;;;;;8.63;6.67;;;21.10;99.90;;;;;;5013170;28;20191;-75
2021/07/28 11:15:20;;;;;;;7.40;5.87;;;21.00;99.90;;;;;;5013132;28;20176;-75
2021/07/28 11:17:45;;;;;;;6.50;5.90;;;21.20;99.90;;;;;;5013146;28;20183;-75
2021/07/28 11:20:32;;;;;;;7.40;5.57;;;21.10;99.90;;;;;;5013390;28;20175;-76
2021/07/28 11:23:17;;;;;;;5.73;5.10;;;21.10;99.90;;;;;;5008274;28;20210;-78
2021/07/28 11:25:42;;;;;;;8.63;5.00;;;21.40;99.90;;;;;;5013967;28;20176;-76
2021/07/28 11:28:08;;;;;;;5.20;4.60;;;21.20;99.90;;;;;;5013369;28;20623;-76
2021/07/28 11:30:33;;;;;;;6.27;4.03;;;21.50;99.90;;;;;;5012539;28;20229;-75
2021/07/28 11:33:15;;;;;;;6.80;4.30;;;21.40;99.90;;;;;;4994560;28;20247;-76
2021/07/28 11:35:44;;;;;;;7.50;4.53;;;21.60;99.90;;;;;;5005529;28;20659;-75
2021/07/28 11:38:20;;;;;;;5.17;4.20;;;21.40;99.90;;;;;;5012278;28;20180;-75
2021/07/28 11:40:46;;;;;;;6.80;4.23;;;21.40;99.90;;;;;;4996492;28;20187;-76
2021/07/28 11:43:21;;;;;;;8.80;4.40;;;21.50;99.90;;;;;;5012368;28;20226;-75
2021/07/28 11:45:50;;;;;;;6.80;4.40;;;21.60;99.90;;;;;;5013846;28;20168;-76
2021/07/28 11:48:37;;;;;;;5.17;4.23;;;21.40;99.90;;;;;;5013261;28;20277;-76
2021/07/28 11:51:04;;;;;;;6.97;3.80;;;21.70;99.90;;;;;;5013897;28;20172;-77
2021/07/28 11:53:30;;;;;;;4.50;3.80;;;22.00;99.90;;;;;;4997191;28;20211;-75
2021/07/28 11:56:08;;;;;;;6.20;3.70;;;22.20;99.90;;;;;;5015698;28;20198;-78
2021/07/28 11:58:35;;;;;;;4.43;2.80;;;22.20;99.90;;;;;;5016652;28;20183;-77
2021/07/28 12:01:21;;;;;;;5.00;2.87;;;22.30;99.90;;;;;;5015719;28;20171;-78
2021/07/28 12:04:03;;;;;;;5.30;2.80;;;22.20;99.90;;;;;;5016937;28;20678;-77
2021/07/28 12:06:37;;;;;;;4.00;2.80;;;22.40;99.90;;;;;;5015616;28;20222;-77
2021/07/28 12:09:19;;;;;;;5.10;2.60;;;22.20;99.90;;;;;;4999994;28;20183;-79
2021/07/28 12:11:46;;;;;;;4.87;2.93;;;22.20;99.90;;;;;;5001130;28;20175;-78
2021/07/28 12:14:24;;;;;;;2.87;2.33;;;22.60;99.90;;;;;;5016705;28;20188;-78
2021/07/28 12:16:50;;;;;;;5.47;2.20;;;22.50;99.90;;;;;;4999805;28;20178;-77
2021/07/28 12:19:39;;;;;;;3.33;2.30;;;22.80;99.90;;;;;;5012836;28;20772;-77
2021/07/28 12:22:11;;;;;;;3.33;2.03;;;22.90;99.90;;;;;;5016384;28;20262;-76
2021/07/28 12:24:42;;;;;;;3.93;2.10;;;22.90;99.90;;;;;;5017036;28;20196;-77
2021/07/28 12:27:26;;;;;;;4.40;2.10;;;22.90;99.90;;;;;;5019744;28;20223;-77
2021/07/28 12:30:08;;;;;;;4.70;2.20;;;22.80;99.90;;;;;;5017510;28;20175;-78
2021/07/28 12:32:35;;;;;;;5.70;2.10;;;23.00;99.90;;;;;;4999819;28;20175;-77
2021/07/28 12:35:05;;;;;;;7.27;2.10;;;22.80;99.90;;;;;;4998885;28;20808;-78
2021/07/28 12:37:30;;;;;;;3.33;1.80;;;22.80;99.90;;;;;;5016888;28;20179;-79
2021/07/28 12:39:56;;;;;;;2.65;1.80;;;22.80;99.90;;;;;;5014912;28;20547;-75
2021/07/28 12:42:22;;;;;;;2.00;1.80;;;23.10;99.90;;;;;;5011390;28;20183;-74